createdAt,value
2019-05-29T00:01:04.028Z,1.13
2019-05-29T00:03:31.271Z,1.00
2019-05-29T00:05:58.336Z,1.00
2019-05-29T00:08:25.432Z,1.07
2019-05-29T00:10:52.517Z,1.20
2019-05-29T00:13:19.582Z,0.90
2019-05-29T00:15:46.723Z,1.10
2019-05-29T00:18:14.550Z,0.70
2019-05-29T00:20:41.848Z,0.90
2019-05-29T00:23:08.961Z,1.00
2019-05-29T00:25:36.052Z,0.90
2019-05-29T00:28:03.114Z,1.20
2019-05-29T00:30:30.223Z,0.93
2019-05-29T00:32:57.314Z,0.90
2019-05-29T00:35:24.413Z,0.90
2019-05-29T00:37:51.474Z,1.13
2019-05-29T00:40:18.619Z,1.00
2019-05-29T00:42:45.709Z,0.80
2019-05-29T00:45:13.405Z,1.10
2019-05-29T00:47:40.736Z,0.87
2019-05-29T00:50:08.046Z,0.90
2019-05-29T00:52:35.281Z,1.07
2019-05-29T00:55:02.381Z,0.90
2019-05-29T00:57:29.459Z,0.80
2019-05-29T00:59:56.541Z,1.00
2019-05-29T01:02:23.689Z,0.93
2019-05-29T01:04:50.780Z,0.73
2019-05-29T01:07:18.363Z,1.10
2019-05-29T01:09:45.616Z,0.97
2019-05-29T01:12:12.858Z,1.00
2019-05-29T01:14:49.805Z,0.90
2019-05-29T01:17:09.035Z,0.70
2019-05-29T01:19:36.306Z,0.93
2019-05-29T01:22:03.461Z,0.93
2019-05-29T01:24:30.522Z,0.70
2019-05-29T01:26:57.633Z,0.90
2019-05-29T01:29:24.696Z,0.90
2019-05-29T01:31:51.941Z,0.80
2019-05-29T01:34:19.802Z,1.20
2019-05-29T01:36:46.972Z,0.90
2019-05-29T01:39:15.072Z,1.00
2019-05-29T01:41:42.345Z,0.90
2019-05-29T01:44:09.433Z,1.00
2019-05-29T01:46:36.495Z,1.03
2019-05-29T01:49:03.588Z,0.90
2019-05-29T01:51:30.662Z,0.90
2019-05-29T01:53:57.767Z,1.00
2019-05-29T01:56:24.913Z,1.00
2019-05-29T01:58:52.046Z,0.80
2019-05-29T02:01:19.932Z,1.00
2019-05-29T02:03:47.226Z,0.90
2019-05-29T02:06:14.320Z,0.80
2019-05-29T02:08:41.368Z,0.70
2019-05-29T02:11:08.466Z,1.30
2019-05-29T02:13:35.551Z,1.10
2019-05-29T02:16:02.605Z,0.87
2019-05-29T02:18:29.723Z,1.00
2019-05-29T02:20:56.775Z,0.80
2019-05-29T02:23:25.068Z,0.90
2019-05-29T02:25:52.149Z,0.80
2019-05-29T02:28:20.424Z,0.70
2019-05-29T02:30:47.766Z,0.60
2019-05-29T02:33:14.847Z,0.90
2019-05-29T02:35:41.902Z,0.70
2019-05-29T02:38:08.992Z,0.93
2019-05-29T02:40:36.047Z,0.80
2019-05-29T02:43:03.295Z,0.90
2019-05-29T02:45:50.805Z,0.77
2019-05-29T02:47:59.281Z,1.07
2019-05-29T02:50:28.741Z,1.00
2019-05-29T02:52:55.249Z,0.90
2019-05-29T02:55:22.628Z,1.00
2019-05-29T02:57:49.995Z,0.80
2019-05-29T03:00:17.120Z,0.87
2019-05-29T03:02:44.387Z,0.90
2019-05-29T03:05:11.447Z,1.00
2019-05-29T03:07:38.533Z,0.97
2019-05-29T03:10:05.710Z,0.90
2019-05-29T03:12:33.679Z,0.83
2019-05-29T03:15:01.082Z,1.10
2019-05-29T03:17:29.732Z,0.70
2019-05-29T03:19:57.174Z,1.17
2019-05-29T03:22:24.324Z,1.20
2019-05-29T03:24:51.452Z,1.03
2019-05-29T03:27:18.540Z,1.20
2019-05-29T03:29:45.601Z,0.90
2019-05-29T03:32:14.488Z,0.87
2019-05-29T03:34:46.524Z,1.10
2019-05-29T03:37:10.384Z,1.00
2019-05-29T03:39:38.556Z,1.10
2019-05-29T03:42:05.925Z,1.17
2019-05-29T03:44:34.745Z,1.13
2019-05-29T03:47:01.800Z,1.37
2019-05-29T03:49:29.226Z,1.00
2019-05-29T03:51:57.814Z,1.10
2019-05-29T03:54:26.625Z,1.00
2019-05-29T03:56:53.665Z,1.00
2019-05-29T03:59:20.829Z,1.30
2019-05-29T04:01:47.908Z,1.10
2019-05-29T04:04:18.474Z,1.10
2019-05-29T04:06:47.436Z,0.93
2019-05-29T04:09:14.533Z,1.13
2019-05-29T04:11:41.606Z,1.60
2019-05-29T04:14:08.695Z,1.40
2019-05-29T04:16:56.041Z,1.10
2019-05-29T04:19:04.586Z,1.20
2019-05-29T04:21:32.129Z,1.27
2019-05-29T04:23:59.899Z,1.27
2019-05-29T04:26:27.948Z,1.30
2019-05-29T04:28:55.133Z,1.57
2019-05-29T04:31:22.239Z,1.40
2019-05-29T04:33:49.327Z,1.67
2019-05-29T04:36:16.432Z,1.63
2019-05-29T04:38:43.530Z,1.50
2019-05-29T04:41:10.592Z,1.47
2019-05-29T04:43:39.673Z,1.67
2019-05-29T04:46:06.538Z,1.50
2019-05-29T04:48:35.586Z,1.70
2019-05-29T04:51:02.540Z,1.70
2019-05-29T04:53:31.274Z,1.80
2019-05-29T04:55:58.388Z,1.63
2019-05-29T04:58:25.468Z,2.00
2019-05-29T05:00:59.290Z,1.93
2019-05-29T05:03:21.340Z,1.80
2019-05-29T05:05:48.438Z,1.93
2019-05-29T05:08:15.501Z,2.13
2019-05-29T05:10:42.605Z,1.80
2019-05-29T05:13:09.732Z,1.50
2019-05-29T05:15:38.015Z,1.63
2019-05-29T05:18:05.388Z,1.70
2019-05-29T05:20:33.927Z,2.00
2019-05-29T05:23:01.327Z,2.40
2019-05-29T05:25:28.521Z,1.53
2019-05-29T05:27:55.597Z,2.20
2019-05-29T05:30:22.923Z,2.20
2019-05-29T05:32:50.073Z,1.90
2019-05-29T05:35:17.140Z,1.90
2019-05-29T05:37:44.301Z,2.10
2019-05-29T05:40:11.384Z,2.13
2019-05-29T05:42:38.994Z,1.90
2019-05-29T05:45:06.198Z,2.03
2019-05-29T05:47:50.357Z,2.50
2019-05-29T05:50:03.973Z,2.53
2019-05-29T05:52:31.246Z,2.10
2019-05-29T05:54:58.388Z,1.80
2019-05-29T05:57:25.477Z,1.70
2019-05-29T05:59:52.775Z,2.10
2019-05-29T06:02:19.843Z,2.00
2019-05-29T06:04:46.928Z,2.20
2019-05-29T06:07:14.025Z,2.27
2019-05-29T06:09:42.406Z,2.00
2019-05-29T06:12:10.007Z,2.27
2019-05-29T06:14:37.094Z,2.00
2019-05-29T06:17:04.363Z,2.10
2019-05-29T06:19:32.683Z,2.07
2019-05-29T06:22:00.111Z,1.90
2019-05-29T06:24:27.193Z,2.60
2019-05-29T06:26:54.325Z,1.63
2019-05-29T06:29:21.720Z,4.10
2019-05-29T06:31:48.992Z,7.30
2019-05-29T06:34:16.400Z,6.03
2019-05-29T06:36:43.968Z,4.53
2019-05-29T06:39:20.361Z,5.90
2019-05-29T06:41:47.538Z,5.97
2019-05-29T06:44:14.672Z,5.47
2019-05-29T06:46:42.530Z,5.30
2019-05-29T06:49:10.209Z,4.60
2019-05-29T06:51:39.305Z,5.70
2019-05-29T06:54:06.665Z,4.97
2019-05-29T06:56:33.781Z,4.20
2019-05-29T06:59:01.236Z,4.47
2019-05-29T07:01:28.557Z,4.33
2019-05-29T07:04:10.713Z,4.33
2019-05-29T07:06:24.520Z,3.47
2019-05-29T07:08:51.639Z,3.80
2019-05-29T07:11:19.001Z,3.90
2019-05-29T07:13:49.644Z,3.00
2019-05-29T07:16:15.033Z,3.80
2019-05-29T07:19:20.504Z,3.50
2019-05-29T07:21:11.207Z,3.63
2019-05-29T07:23:38.789Z,3.43
2019-05-29T07:26:06.681Z,3.50
2019-05-29T07:28:33.963Z,3.20
2019-05-29T07:31:03.501Z,3.33
2019-05-29T07:33:30.533Z,4.13
2019-05-29T07:38:55.940Z,3.23
2019-05-29T07:43:59.785Z,3.20
2019-05-29T07:49:19.217Z,3.63
2019-05-29T07:51:50.419Z,3.93
2019-05-29T08:01:11.710Z,3.43
2019-05-29T08:14:23.664Z,3.60
2019-05-29T08:16:52.200Z,3.20
2019-05-29T08:19:22.454Z,2.93
2019-05-29T08:21:51.039Z,3.00
2019-05-29T08:27:09.914Z,2.80
2019-05-29T08:32:26.397Z,3.10
2019-05-29T08:34:53.687Z,3.17
2019-05-29T08:37:22.678Z,3.10
2019-05-29T08:39:49.932Z,3.20
2019-05-29T08:42:23.309Z,3.10
2019-05-29T08:44:48.127Z,3.13
2019-05-29T08:50:17.873Z,3.50
2019-05-29T08:52:37.020Z,3.23
2019-05-29T08:55:04.253Z,3.07
2019-05-29T08:59:06.960Z,3.10
2019-05-29T09:00:33.498Z,3.63
2019-05-29T09:11:23.224Z,2.47
2019-05-29T09:13:55.040Z,2.77
2019-05-29T09:16:25.306Z,2.93
2019-05-29T09:18:54.321Z,2.50
2019-05-29T09:21:22.862Z,2.80
2019-05-29T09:23:50.624Z,2.70
2019-05-29T09:26:22.241Z,2.10
2019-05-29T09:28:46.970Z,2.77
2019-05-29T09:31:15.544Z,3.30
2019-05-29T09:33:43.326Z,2.97
2019-05-29T09:36:10.597Z,2.70
2019-05-29T09:41:39.821Z,2.40
2019-05-29T09:44:06.954Z,2.33
2019-05-29T09:46:34.217Z,2.40
2019-05-29T09:49:01.816Z,2.60
2019-05-29T09:51:29.395Z,2.90
2019-05-29T09:53:59.446Z,2.30
2019-05-29T09:56:27.373Z,2.53
2019-05-29T09:58:56.330Z,2.70
2019-05-29T10:01:25.087Z,2.20
2019-05-29T10:03:54.616Z,2.43
2019-05-29T10:06:22.067Z,2.10
2019-05-29T10:08:49.152Z,2.00
2019-05-29T10:14:03.358Z,2.20
2019-05-29T10:19:20.221Z,1.73
2019-05-29T10:21:47.455Z,1.90
2019-05-29T10:24:14.822Z,2.03
2019-05-29T10:26:41.972Z,2.17
2019-05-29T10:29:10.150Z,2.10
2019-05-29T10:31:37.471Z,2.20
2019-05-29T10:34:04.639Z,2.10
2019-05-29T10:36:31.961Z,2.00
2019-05-29T10:39:14.096Z,2.37
2019-05-29T10:41:39.890Z,1.93
2019-05-29T10:46:57.595Z,1.90
2019-05-29T10:52:16.531Z,2.00
2019-05-29T10:57:17.292Z,2.20
2019-05-29T11:08:35.165Z,2.63
2019-05-29T11:11:02.447Z,2.40
2019-05-29T11:13:30.138Z,2.27
2019-05-29T11:15:57.261Z,1.87
2019-05-29T11:18:24.469Z,1.80
2019-05-29T11:20:51.867Z,2.47
2019-05-29T11:23:19.179Z,2.60
2019-05-29T11:25:49.900Z,2.00
2019-05-29T11:28:41.248Z,2.23
2019-05-29T11:31:08.118Z,2.50
2019-05-29T11:33:35.667Z,2.20
2019-05-29T11:36:10.667Z,2.47
2019-05-29T11:38:31.821Z,1.90
2019-05-29T11:41:24.735Z,2.30
2019-05-29T11:43:29.751Z,1.97
2019-05-29T11:45:57.347Z,2.20
2019-05-29T11:48:24.852Z,2.40
2019-05-29T11:50:52.208Z,2.30
2019-05-29T11:53:19.751Z,2.30
2019-05-29T11:55:46.938Z,2.63
2019-05-29T11:58:30.038Z,2.13
2019-05-29T12:06:34.370Z,3.00
2019-05-29T12:09:02.021Z,2.97
2019-05-29T12:14:21.769Z,3.60
2019-05-29T12:19:39.793Z,4.17
2019-05-29T12:22:11.544Z,2.87
2019-05-29T12:35:50.270Z,2.73
2019-05-29T12:38:23.741Z,2.67
2019-05-29T12:40:50.953Z,2.60
2019-05-29T12:45:53.782Z,3.10
2019-05-29T12:56:48.428Z,2.80
2019-05-29T12:59:18.351Z,2.17
2019-05-29T13:01:45.812Z,2.77
2019-05-29T13:04:12.959Z,2.40
2019-05-29T13:06:41.952Z,2.67
2019-05-29T13:09:09.073Z,2.37
2019-05-29T13:11:36.466Z,2.37
2019-05-29T13:14:04.669Z,2.37
2019-05-29T13:16:38.542Z,1.97
2019-05-29T13:19:05.863Z,2.33
2019-05-29T13:24:37.784Z,1.93
2019-05-29T13:27:06.094Z,2.40
2019-05-29T13:32:23.087Z,2.53
2019-05-29T13:34:50.524Z,1.97
2019-05-29T13:38:09.706Z,2.60
2019-05-29T13:39:59.984Z,2.17
2019-05-29T13:42:27.492Z,2.37
2019-05-29T13:45:47.231Z,1.90
2019-05-29T13:50:59.797Z,1.97
2019-05-29T13:53:27.732Z,2.33
2019-05-29T13:55:54.872Z,2.10
2019-05-29T13:58:22.106Z,2.23
2019-05-29T14:00:49.389Z,2.50
2019-05-29T14:03:16.455Z,2.90
2019-05-29T14:05:43.576Z,2.53
2019-05-29T14:08:10.689Z,2.93
2019-05-29T14:10:38.385Z,2.03
2019-05-29T14:13:07.257Z,2.30
2019-05-29T14:15:34.507Z,2.70
2019-05-29T14:18:02.849Z,2.20
2019-05-29T14:20:30.271Z,1.87
2019-05-29T14:22:57.395Z,2.13
2019-05-29T14:25:24.520Z,2.40
2019-05-29T14:27:51.680Z,1.80
2019-05-29T14:30:18.880Z,2.43
2019-05-29T14:32:45.947Z,1.83
2019-05-29T14:35:13.483Z,1.80
2019-05-29T14:37:40.830Z,1.97
2019-05-29T14:40:08.117Z,2.03
2019-05-29T14:42:35.411Z,2.00
2019-05-29T14:45:03.880Z,1.83
2019-05-29T14:47:31.287Z,2.53
2019-05-29T14:50:00.472Z,1.60
2019-05-29T14:52:27.666Z,2.03
2019-05-29T14:54:54.966Z,1.93
2019-05-29T14:57:26.030Z,2.37
2019-05-29T14:59:51.011Z,1.90
2019-05-29T15:02:23.636Z,2.20
2019-05-29T15:05:17.933Z,1.53
2019-05-29T15:07:33.666Z,1.70
2019-05-29T15:10:01.124Z,1.50
2019-05-29T15:12:28.204Z,1.77
2019-05-29T15:14:55.328Z,1.87
2019-05-29T15:17:22.445Z,1.80
2019-05-29T15:19:49.744Z,1.80
2019-05-29T15:22:16.937Z,1.83
2019-05-29T15:24:59.782Z,2.00
2019-05-29T15:27:13.851Z,1.70
2019-05-29T15:29:41.708Z,1.80
2019-05-29T15:32:10.299Z,1.67
2019-05-29T15:34:38.163Z,1.77
2019-05-29T15:37:06.686Z,1.43
2019-05-29T15:39:34.095Z,1.67
2019-05-29T15:42:01.192Z,1.73
2019-05-29T15:44:28.307Z,1.70
2019-05-29T15:46:55.406Z,1.43
2019-05-29T15:49:22.707Z,1.50
2019-05-29T15:51:49.815Z,1.60
2019-05-29T15:54:18.543Z,1.80
2019-05-29T15:56:45.630Z,1.37
2019-05-29T15:59:14.494Z,1.30
2019-05-29T16:01:41.823Z,1.47
2019-05-29T16:04:09.643Z,1.43
2019-05-29T16:06:36.890Z,1.60
2019-05-29T16:09:03.954Z,1.53
2019-05-29T16:11:31.247Z,1.37
2019-05-29T16:13:58.344Z,1.50
2019-05-29T16:16:27.575Z,1.57
2019-05-29T16:19:00.548Z,1.60
2019-05-29T16:21:29.023Z,1.70
2019-05-29T16:23:56.241Z,1.40
2019-05-29T16:26:23.369Z,1.90
2019-05-29T16:28:52.194Z,2.30
2019-05-29T16:31:19.404Z,1.97
2019-05-29T16:33:47.843Z,2.20
2019-05-29T16:36:25.670Z,1.90
2019-05-29T16:38:46.647Z,1.87
2019-05-29T16:41:13.911Z,2.70
2019-05-29T16:43:41.138Z,2.40
2019-05-29T16:46:08.400Z,2.10
2019-05-29T16:48:35.613Z,2.40
2019-05-29T16:51:02.993Z,2.70
2019-05-29T16:53:30.139Z,2.60
2019-05-29T16:55:57.254Z,2.70
2019-05-29T16:58:24.380Z,2.13
2019-05-29T17:00:51.659Z,3.50
2019-05-29T17:03:19.709Z,2.00
2019-05-29T17:05:47.091Z,3.00
2019-05-29T17:08:14.244Z,2.53
2019-05-29T17:10:42.759Z,3.60
2019-05-29T17:13:09.832Z,2.67
2019-05-29T17:15:36.963Z,2.57
2019-05-29T17:18:04.164Z,2.90
2019-05-29T17:20:31.243Z,2.50
2019-05-29T17:22:58.555Z,3.00
2019-05-29T17:25:28.419Z,2.87
2019-05-29T17:27:54.408Z,2.73
2019-05-29T17:30:22.960Z,2.80
2019-05-29T17:32:53.764Z,3.27
2019-05-29T17:35:23.183Z,2.70
2019-05-29T17:37:50.340Z,3.33
2019-05-29T17:40:23.678Z,2.80
2019-05-29T17:43:01.800Z,2.67
2019-05-29T17:45:27.382Z,2.77
2019-05-29T17:47:54.537Z,2.20
2019-05-29T17:50:23.209Z,3.43
2019-05-29T17:52:50.524Z,3.20
2019-05-29T17:55:19.056Z,3.20
2019-05-29T17:57:46.504Z,3.10
2019-05-29T18:00:13.784Z,2.30
2019-05-29T18:02:51.392Z,3.40
2019-05-29T18:05:09.699Z,3.60
2019-05-29T18:07:36.887Z,2.90
2019-05-29T18:10:04.198Z,3.13
2019-05-29T18:12:31.314Z,2.70
2019-05-29T18:14:58.398Z,2.97
2019-05-29T18:17:25.539Z,2.77
2019-05-29T18:19:52.775Z,2.93
2019-05-29T18:22:21.601Z,2.57
2019-05-29T18:24:48.913Z,2.97
2019-05-29T18:27:15.970Z,2.90
2019-05-29T18:29:43.076Z,3.67
2019-05-29T18:32:10.554Z,3.13
2019-05-29T18:34:37.737Z,3.00
2019-05-29T18:37:04.820Z,2.87
2019-05-29T18:39:32.516Z,2.47
2019-05-29T18:42:00.111Z,3.03
2019-05-29T18:44:27.201Z,3.00
2019-05-29T18:46:54.364Z,2.77
2019-05-29T18:49:22.252Z,2.90
2019-05-29T18:51:49.526Z,2.50
2019-05-29T18:54:16.618Z,2.20
2019-05-29T18:56:43.817Z,4.10
2019-05-29T18:59:10.983Z,2.77
2019-05-29T19:01:38.227Z,2.53
2019-05-29T19:04:05.559Z,2.83
2019-05-29T19:06:32.806Z,2.47
2019-05-29T19:09:00.028Z,2.63
2019-05-29T19:11:29.984Z,2.80
2019-05-29T19:13:57.271Z,2.77
2019-05-29T19:16:24.423Z,2.60
2019-05-29T19:18:51.524Z,3.00
2019-05-29T19:21:18.948Z,2.30
2019-05-29T19:23:46.082Z,2.10
2019-05-29T19:26:13.251Z,2.30
2019-05-29T19:28:43.721Z,2.57
2019-05-29T19:31:10.919Z,2.07
2019-05-29T19:33:38.391Z,2.40
2019-05-29T19:36:05.627Z,2.60
2019-05-29T19:38:34.051Z,1.90
2019-05-29T19:41:01.350Z,2.13
2019-05-29T19:43:28.504Z,2.80
2019-05-29T19:45:55.602Z,2.37
2019-05-29T19:48:22.801Z,2.57
2019-05-29T19:50:50.382Z,1.80
2019-05-29T19:53:17.767Z,2.20
2019-05-29T19:55:45.177Z,2.43
2019-05-29T19:58:12.327Z,2.67
2019-05-29T20:00:39.633Z,2.77
2019-05-29T20:03:07.008Z,1.70
2019-05-29T20:05:34.943Z,1.90
2019-05-29T20:08:02.555Z,2.37
2019-05-29T20:10:31.304Z,1.97
2019-05-29T20:12:58.925Z,2.10
2019-05-29T20:15:25.995Z,1.90
2019-05-29T20:17:56.088Z,2.00
2019-05-29T20:20:23.341Z,2.17
2019-05-29T20:22:50.640Z,2.57
2019-05-29T20:25:17.733Z,1.90
2019-05-29T20:27:45.181Z,2.07
2019-05-29T20:30:12.354Z,1.87
2019-05-29T20:32:39.483Z,2.00
2019-05-29T20:35:14.363Z,2.37
2019-05-29T20:37:40.051Z,1.83
2019-05-29T20:40:07.307Z,2.33
2019-05-29T20:42:36.375Z,1.97
2019-05-29T20:45:05.796Z,2.00
2019-05-29T20:47:33.619Z,2.10
2019-05-29T20:50:01.162Z,2.03
2019-05-29T20:52:28.286Z,1.90
2019-05-29T20:54:58.462Z,1.83
2019-05-29T20:57:24.274Z,1.80
2019-05-29T20:59:51.463Z,1.70
2019-05-29T21:02:19.459Z,1.83
2019-05-29T21:04:46.581Z,2.40
2019-05-29T21:07:13.752Z,1.80
2019-05-29T21:09:41.097Z,1.90
2019-05-29T21:12:08.538Z,2.07
2019-05-29T21:14:36.123Z,1.77
2019-05-29T21:17:05.736Z,1.83
2019-05-29T21:19:34.005Z,1.80
2019-05-29T21:22:04.127Z,1.60
2019-05-29T21:24:31.324Z,2.27
2019-05-29T21:26:58.450Z,2.37
2019-05-29T21:29:25.660Z,1.57
2019-05-29T21:31:53.156Z,2.00
2019-05-29T21:34:20.225Z,2.00
2019-05-29T21:36:47.374Z,1.70
2019-05-29T21:39:14.469Z,1.87
2019-05-29T21:41:42.590Z,1.60
2019-05-29T21:44:11.931Z,1.60
2019-05-29T21:46:43.003Z,1.67
2019-05-29T21:49:12.676Z,1.60
2019-05-29T21:51:39.914Z,1.60
2019-05-29T21:54:06.996Z,1.47
2019-05-29T21:56:34.114Z,1.60
2019-05-29T21:59:04.339Z,2.07
2019-05-29T22:01:31.837Z,1.50
2019-05-29T22:03:59.029Z,1.50
2019-05-29T22:06:26.113Z,1.50
2019-05-29T22:08:53.244Z,1.30
2019-05-29T22:11:20.362Z,1.90
2019-05-29T22:13:47.493Z,1.70
2019-05-29T22:16:14.636Z,1.40
2019-05-29T22:18:42.909Z,1.90
2019-05-29T22:21:10.061Z,1.60
2019-05-29T22:23:37.151Z,1.37
2019-05-29T22:26:04.221Z,1.40
2019-05-29T22:28:31.343Z,2.10
2019-05-29T22:30:59.477Z,1.77
2019-05-29T22:33:27.109Z,1.50
2019-05-29T22:35:55.453Z,1.47
2019-05-29T22:38:24.604Z,1.30
2019-05-29T22:40:52.531Z,1.20
2019-05-29T22:43:31.980Z,1.50
2019-05-29T22:45:55.714Z,1.60
2019-05-29T22:48:22.886Z,1.90
2019-05-29T22:50:49.939Z,1.33
2019-05-29T22:53:17.326Z,1.50
2019-05-29T22:55:44.793Z,1.60
2019-05-29T22:58:11.877Z,1.40
2019-05-29T23:00:39.128Z,1.33
2019-05-29T23:03:06.286Z,2.07
2019-05-29T23:05:33.390Z,1.33
2019-05-29T23:08:00.472Z,1.43
2019-05-29T23:10:28.144Z,1.50
2019-05-29T23:12:56.188Z,1.40
2019-05-29T23:15:25.557Z,1.53
2019-05-29T23:17:52.681Z,1.40
2019-05-29T23:20:19.996Z,1.47
2019-05-29T23:22:47.141Z,1.40
2019-05-29T23:25:14.258Z,1.20
2019-05-29T23:27:41.370Z,1.60
2019-05-29T23:30:08.471Z,1.47
2019-05-29T23:32:35.596Z,1.40
2019-05-29T23:35:03.487Z,1.50
2019-05-29T23:37:30.663Z,1.30
2019-05-29T23:39:57.827Z,1.20
2019-05-29T23:42:26.783Z,1.57
2019-05-29T23:44:54.474Z,1.67
2019-05-29T23:47:22.701Z,1.10
2019-05-29T23:49:49.840Z,1.20
2019-05-29T23:52:16.937Z,1.20
2019-05-29T23:54:44.108Z,1.30
2019-05-29T23:57:11.240Z,1.30
2019-05-29T23:59:38.429Z,1.20
